sensor_id;sensor_type;location;lat;lon;timestamp;P1;durP1;ratioP1;P2;durP2;ratioP2
22521;SDS011;11427;51.062;17.044;2022-12-10T00:07:42;134.75;;;52.10;;
22521;SDS011;11427;51.062;17.044;2022-12-10T00:22:44;130.43;;;49.90;;
22521;SDS011;11427;51.062;17.044;2022-12-10T00:37:46;135.73;;;52.83;;
22521;SDS011;11427;51.062;17.044;2022-12-10T00:52:48;136.00;;;50.75;;
22521;SDS011;11427;51.062;17.044;2022-12-10T01:07:50;129.98;;;49.95;;
22521;SDS011;11427;51.062;17.044;2022-12-10T01:22:53;126.15;;;46.80;;
22521;SDS011;11427;51.062;17.044;2022-12-10T01:37:55;124.95;;;47.40;;
22521;SDS011;11427;51.062;17.044;2022-12-10T01:52:57;130.25;;;46.88;;
22521;SDS011;11427;51.062;17.044;2022-12-10T02:08:03;123.03;;;46.13;;
22521;SDS011;11427;51.062;17.044;2022-12-10T02:23:31;122.55;;;47.15;;
22521;SDS011;11427;51.062;17.044;2022-12-10T02:38:38;124.25;;;47.45;;
22521;SDS011;11427;51.062;17.044;2022-12-10T02:53:42;114.55;;;43.03;;
22521;SDS011;11427;51.062;17.044;2022-12-10T03:08:47;130.68;;;45.38;;
22521;SDS011;11427;51.062;17.044;2022-12-10T03:24:01;138.10;;;47.03;;
22521;SDS011;11427;51.062;17.044;2022-12-10T03:39:04;139.48;;;47.90;;
22521;SDS011;11427;51.062;17.044;2022-12-10T03:54:07;119.13;;;43.55;;
22521;SDS011;11427;51.062;17.044;2022-12-10T04:09:09;110.03;;;39.70;;
22521;SDS011;11427;51.062;17.044;2022-12-10T04:24:13;108.43;;;41.15;;
22521;SDS011;11427;51.062;17.044;2022-12-10T04:39:34;93.28;;;37.97;;
22521;SDS011;11427;51.062;17.044;2022-12-10T04:54:36;90.25;;;37.35;;
22521;SDS011;11427;51.062;17.044;2022-12-10T05:09:39;89.45;;;38.40;;
22521;SDS011;11427;51.062;17.044;2022-12-10T05:24:41;82.00;;;36.88;;
22521;SDS011;11427;51.062;17.044;2022-12-10T05:39:43;85.93;;;36.85;;
22521;SDS011;11427;51.062;17.044;2022-12-10T05:54:45;78.60;;;34.50;;
22521;SDS011;11427;51.062;17.044;2022-12-10T06:09:47;81.25;;;35.42;;
22521;SDS011;11427;51.062;17.044;2022-12-10T06:24:49;93.07;;;36.85;;
22521;SDS011;11427;51.062;17.044;2022-12-10T06:39:51;97.25;;;41.85;;
22521;SDS011;11427;51.062;17.044;2022-12-10T06:54:53;83.18;;;37.90;;
22521;SDS011;11427;51.062;17.044;2022-12-10T07:09:56;83.13;;;37.20;;
22521;SDS011;11427;51.062;17.044;2022-12-10T07:24:58;91.88;;;40.38;;
22521;SDS011;11427;51.062;17.044;2022-12-10T07:40:00;82.28;;;38.63;;
22521;SDS011;11427;51.062;17.044;2022-12-10T07:55:02;93.32;;;40.78;;
22521;SDS011;11427;51.062;17.044;2022-12-10T08:10:04;96.22;;;41.42;;
22521;SDS011;11427;51.062;17.044;2022-12-10T08:25:07;102.72;;;44.30;;
22521;SDS011;11427;51.062;17.044;2022-12-10T08:40:09;82.22;;;39.22;;
22521;SDS011;11427;51.062;17.044;2022-12-10T08:55:12;97.43;;;41.42;;
22521;SDS011;11427;51.062;17.044;2022-12-10T09:10:13;94.35;;;40.28;;
22521;SDS011;11427;51.062;17.044;2022-12-10T09:25:15;86.28;;;38.90;;
22521;SDS011;11427;51.062;17.044;2022-12-10T09:40:18;86.75;;;40.42;;
22521;SDS011;11427;51.062;17.044;2022-12-10T09:55:37;84.32;;;38.17;;
22521;SDS011;11427;51.062;17.044;2022-12-10T10:10:44;81.82;;;39.63;;
22521;SDS011;11427;51.062;17.044;2022-12-10T10:25:46;79.10;;;39.30;;
22521;SDS011;11427;51.062;17.044;2022-12-10T10:40:52;76.15;;;37.05;;
22521;SDS011;11427;51.062;17.044;2022-12-10T10:56:05;75.00;;;36.53;;
22521;SDS011;11427;51.062;17.044;2022-12-10T11:11:31;75.38;;;36.38;;
22521;SDS011;11427;51.062;17.044;2022-12-10T11:26:53;68.03;;;35.65;;
22521;SDS011;11427;51.062;17.044;2022-12-10T11:42:03;68.72;;;34.15;;
22521;SDS011;11427;51.062;17.044;2022-12-10T12:42:46;77.25;;;38.45;;
22521;SDS011;11427;51.062;17.044;2022-12-10T12:58:15;73.63;;;38.58;;
22521;SDS011;11427;51.062;17.044;2022-12-10T13:13:37;82.88;;;40.00;;
22521;SDS011;11427;51.062;17.044;2022-12-10T13:44:39;86.93;;;41.70;;
22521;SDS011;11427;51.062;17.044;2022-12-10T14:00:06;92.45;;;43.85;;
22521;SDS011;11427;51.062;17.044;2022-12-10T14:15:20;86.80;;;42.03;;
22521;SDS011;11427;51.062;17.044;2022-12-10T14:30:25;80.18;;;40.05;;
22521;SDS011;11427;51.062;17.044;2022-12-10T14:45:31;83.50;;;41.80;;
22521;SDS011;11427;51.062;17.044;2022-12-10T15:00:48;76.00;;;38.13;;
22521;SDS011;11427;51.062;17.044;2022-12-10T15:15:50;87.13;;;42.95;;
22521;SDS011;11427;51.062;17.044;2022-12-10T15:46:26;97.95;;;44.35;;
22521;SDS011;11427;51.062;17.044;2022-12-10T16:01:28;94.53;;;42.63;;
22521;SDS011;11427;51.062;17.044;2022-12-10T16:16:30;96.70;;;43.00;;
22521;SDS011;11427;51.062;17.044;2022-12-10T16:31:32;90.85;;;41.83;;
22521;SDS011;11427;51.062;17.044;2022-12-10T16:46:34;91.22;;;41.53;;
22521;SDS011;11427;51.062;17.044;2022-12-10T17:01:36;91.07;;;41.65;;
22521;SDS011;11427;51.062;17.044;2022-12-10T17:16:38;90.65;;;40.25;;
22521;SDS011;11427;51.062;17.044;2022-12-10T17:31:40;85.28;;;38.92;;
22521;SDS011;11427;51.062;17.044;2022-12-10T17:46:42;94.38;;;41.65;;
22521;SDS011;11427;51.062;17.044;2022-12-10T18:01:44;95.20;;;40.10;;
22521;SDS011;11427;51.062;17.044;2022-12-10T18:16:49;94.68;;;39.17;;
22521;SDS011;11427;51.062;17.044;2022-12-10T18:31:51;93.20;;;39.65;;
22521;SDS011;11427;51.062;17.044;2022-12-10T18:46:53;92.53;;;39.67;;
22521;SDS011;11427;51.062;17.044;2022-12-10T19:01:56;89.28;;;39.50;;
22521;SDS011;11427;51.062;17.044;2022-12-10T19:16:58;89.68;;;37.97;;
22521;SDS011;11427;51.062;17.044;2022-12-10T19:32:01;93.38;;;40.50;;
22521;SDS011;11427;51.062;17.044;2022-12-10T19:47:05;92.95;;;41.90;;
22521;SDS011;11427;51.062;17.044;2022-12-10T20:02:12;86.50;;;40.83;;
22521;SDS011;11427;51.062;17.044;2022-12-10T20:17:14;85.68;;;39.35;;
22521;SDS011;11427;51.062;17.044;2022-12-10T20:32:20;88.20;;;40.70;;
22521;SDS011;11427;51.062;17.044;2022-12-10T20:47:22;87.07;;;39.90;;
22521;SDS011;11427;51.062;17.044;2022-12-10T21:02:24;83.22;;;40.00;;
22521;SDS011;11427;51.062;17.044;2022-12-10T21:17:26;80.75;;;36.83;;
22521;SDS011;11427;51.062;17.044;2022-12-10T21:32:28;73.38;;;34.92;;
22521;SDS011;11427;51.062;17.044;2022-12-10T21:47:30;74.28;;;35.60;;
22521;SDS011;11427;51.062;17.044;2022-12-10T22:02:32;76.03;;;35.78;;
22521;SDS011;11427;51.062;17.044;2022-12-10T22:17:34;81.88;;;39.28;;
22521;SDS011;11427;51.062;17.044;2022-12-10T22:32:36;90.03;;;40.97;;
22521;SDS011;11427;51.062;17.044;2022-12-10T22:47:41;88.05;;;40.80;;
22521;SDS011;11427;51.062;17.044;2022-12-10T23:02:43;100.05;;;43.25;;
22521;SDS011;11427;51.062;17.044;2022-12-10T23:17:45;97.00;;;42.13;;
22521;SDS011;11427;51.062;17.044;2022-12-10T23:32:47;112.82;;;48.03;;
22521;SDS011;11427;51.062;17.044;2022-12-10T23:47:50;107.90;;;45.65;;
